Terminal Aerodrome Forecast
Issued by NWS

Home | Current Version | Previous Version | Graphics & Text | Print | Product List | Glossary On
Versions: 1 2 3 4 5 6 7 8 9 10 11 12 13
000
FTUS45 KGGW 032300
TAFSDY
TAF
KSDY 032320Z 0400/0424 VRB04KT P6SM FEW250
     FM041500 14010KT P6SM SCT090
     FM041800 16015KT P6SM BKN100
      AMD LTD TO CLD VIS AND WIND=

USA.gov is the U.S. government's official web portal to all federal, state and local government web resources and services.